Time;durP1;ratioP1;P1;durP2;ratioP2;P2;SDS_P1;SDS_P2;PMS_P1;PMS_P2;Temp;Humidity;BMP_temperature;BMP_pressure;BME280_temperature;BME280_humidity;BME280_pressure;Samples;Min_cycle;Max_cycle;Signal;HPM_P1;HPM_P2
2021/06/04 00:00:38;;;;;;;1999.90;999.90;;;18.30;99.90;;;;;;5034366;28;20250;-76
2021/06/04 00:03:10;;;;;;;1999.90;999.90;;;18.30;99.90;;;;;;5035423;28;20224;-76
2021/06/04 00:05:42;;;;;;;1999.90;999.90;;;18.20;99.90;;;;;;5035256;28;20637;-76
2021/06/04 00:08:08;;;;;;;1999.90;999.90;;;18.20;99.90;;;;;;5016519;28;20556;-77
2021/06/04 00:10:38;;;;;;;1999.90;999.90;;;18.20;99.90;;;;;;5034299;28;20187;-76
2021/06/04 00:13:53;;;;;;;1999.90;999.90;;;18.10;99.90;;;;;;5034183;28;20552;-76
2021/06/04 00:16:30;;;;;;;1999.90;999.90;;;18.00;99.90;;;;;;5013856;28;21117;-77
2021/06/04 00:18:57;;;;;;;1999.90;999.90;;;18.10;99.90;;;;;;5034494;28;20178;-77
2021/06/04 00:21:34;;;;;;;1999.90;999.90;;;18.10;99.90;;;;;;5016539;28;20177;-77
2021/06/04 00:24:01;;;;;;;1999.90;999.90;;;18.00;99.90;;;;;;5034279;28;20700;-77
2021/06/04 00:26:28;;;;;;;1999.90;999.90;;;17.90;99.90;;;;;;5016275;28;20660;-77
2021/06/04 00:28:54;;;;;;;1999.90;999.90;;;17.80;99.90;;;;;;5034094;28;20661;-77
2021/06/04 00:31:21;;;;;;;1999.90;999.90;;;17.70;99.90;;;;;;5016091;28;20189;-76
2021/06/04 00:33:47;;;;;;;1999.90;999.90;;;17.70;99.90;;;;;;5033664;28;20201;-76
2021/06/04 00:36:13;;;;;;;1999.90;999.90;;;17.60;99.90;;;;;;5033724;28;20210;-77
2021/06/04 00:38:39;;;;;;;1999.90;999.90;;;17.50;99.90;;;;;;5015992;28;20218;-74
2021/06/04 00:41:09;;;;;;;1999.90;999.90;;;17.50;99.90;;;;;;5034766;28;20186;-75
2021/06/04 00:43:35;;;;;;;1999.90;999.90;;;17.50;99.90;;;;;;5034192;28;20553;-76
2021/06/04 00:46:06;;;;;;;1999.90;999.90;;;17.50;99.90;;;;;;5033717;28;20262;-76
2021/06/04 00:48:31;;;;;;;1999.90;999.90;;;17.50;99.90;;;;;;5033602;28;20724;-77
2021/06/04 00:51:11;;;;;;;1999.90;999.90;;;17.50;99.90;;;;;;5033423;28;20178;-77
2021/06/04 00:53:37;;;;;;;1999.90;999.90;;;17.50;99.90;;;;;;5033846;28;20645;-77
2021/06/04 00:56:05;;;;;;;1999.90;999.90;;;17.50;99.90;;;;;;5017330;28;20187;-78
2021/06/04 00:58:35;;;;;;;1999.90;999.90;;;17.40;99.90;;;;;;5034582;28;20684;-77
2021/06/04 01:01:02;;;;;;;1999.90;999.90;;;17.40;99.90;;;;;;5015878;28;20319;-76
2021/06/04 01:03:32;;;;;;;1999.90;999.90;;;17.40;99.90;;;;;;5033661;28;20344;-76
2021/06/04 01:06:10;;;;;;;1999.90;999.90;;;17.50;99.90;;;;;;5033894;28;20253;-77
2021/06/04 01:08:44;;;;;;;1999.90;999.90;;;17.50;99.90;;;;;;5034902;28;20174;-77
2021/06/04 01:11:29;;;;;;;1999.90;999.90;;;17.50;99.90;;;;;;5029350;28;20185;-76
2021/06/04 01:14:18;;;;;;;1999.90;999.90;;;17.40;99.90;;;;;;5017474;28;20608;-76
2021/06/04 01:16:57;;;;;;;1999.90;999.90;;;17.40;99.90;;;;;;5026825;28;20229;-76
2021/06/04 01:19:54;;;;;;;1999.90;999.90;;;17.40;99.90;;;;;;5040275;28;20260;-76
2021/06/04 01:22:45;;;;;;;1999.90;999.90;;;17.20;99.90;;;;;;5016802;28;20782;-76
2021/06/04 01:25:34;;;;;;;1999.90;999.90;;;17.20;99.90;;;;;;5053576;23;20221;-78
2021/06/04 01:28:05;;;;;;;1999.90;999.90;;;17.20;99.90;;;;;;5057426;28;20185;-78
2021/06/04 01:31:05;;;;;;;1999.90;999.90;;;17.10;99.90;;;;;;5056839;28;20176;-79
2021/06/04 01:33:40;;;;;;;1999.90;999.90;;;17.10;99.90;;;;;;5058021;28;20169;-80
2021/06/04 01:36:07;;;;;;;1999.90;999.90;;;17.10;99.90;;;;;;5044913;28;20610;-78
2021/06/04 01:38:40;;;;;;;1999.90;999.90;;;17.00;99.90;;;;;;5033763;28;20218;-77
2021/06/04 01:41:11;;;;;;;1999.90;999.90;;;17.00;99.90;;;;;;5032939;28;20252;-77
2021/06/04 01:43:41;;;;;;;1999.90;999.90;;;16.90;99.90;;;;;;5035367;28;20175;-77
2021/06/04 01:46:13;;;;;;;1999.90;999.90;;;16.90;99.90;;;;;;5027753;28;20202;-77
2021/06/04 01:48:43;;;;;;;1999.90;999.90;;;16.80;99.90;;;;;;5034823;28;20170;-77
2021/06/04 01:51:14;;;;;;;1999.90;999.90;;;16.90;99.90;;;;;;5034119;28;20534;-77
2021/06/04 01:53:45;;;;;;;1999.90;999.90;;;16.90;99.90;;;;;;5030916;28;20175;-77
2021/06/04 01:56:22;;;;;;;1999.90;999.90;;;17.00;99.90;;;;;;5033856;28;20206;-77
2021/06/04 01:58:55;;;;;;;1999.90;999.90;;;17.00;99.90;;;;;;5034974;28;20205;-77
2021/06/04 02:01:35;;;;;;;1999.90;999.90;;;16.90;99.90;;;;;;5028707;28;20253;-78
2021/06/04 02:04:15;;;;;;;1999.90;999.90;;;16.80;99.90;;;;;;5035425;28;20174;-78
2021/06/04 02:06:42;;;;;;;1999.90;999.90;;;16.80;99.90;;;;;;5034949;28;20194;-78
2021/06/04 02:09:13;;;;;;;1999.90;999.90;;;16.70;99.90;;;;;;5035679;28;20198;-78
2021/06/04 02:11:39;;;;;;;1999.90;999.90;;;16.70;99.90;;;;;;5031403;28;20197;-78
2021/06/04 02:14:10;;;;;;;1999.90;999.90;;;16.70;99.90;;;;;;5032711;28;20227;-78
2021/06/04 02:17:06;;;;;;;1999.90;999.90;;;16.70;99.90;;;;;;5033692;28;20198;-78
2021/06/04 02:19:56;;;;;;;1999.90;999.90;;;16.70;99.90;;;;;;5029863;28;20189;-78
2021/06/04 02:22:29;;;;;;;1999.90;999.90;;;16.50;99.90;;;;;;5028161;28;20174;-77
2021/06/04 02:25:07;;;;;;;1999.90;999.90;;;16.50;99.90;;;;;;5031150;28;20273;-78
2021/06/04 02:27:39;;;;;;;1999.90;999.90;;;16.50;99.90;;;;;;5014658;28;20556;-78
2021/06/04 02:30:46;;;;;;;1999.90;999.90;;;16.40;99.90;;;;;;5009631;28;20268;-78
2021/06/04 02:33:19;;;;;;;1999.90;999.90;;;16.40;99.90;;;;;;5026452;28;20285;-78
2021/06/04 02:35:54;;;;;;;1999.90;999.90;;;16.30;99.90;;;;;;5033336;28;20190;-78
2021/06/04 02:38:35;;;;;;;1999.90;999.90;;;16.40;99.90;;;;;;5033819;28;20198;-78
2021/06/04 02:41:14;;;;;;;1999.90;999.90;;;16.40;99.90;;;;;;5032989;28;20174;-78
2021/06/04 02:43:51;;;;;;;1999.90;999.90;;;16.40;99.90;;;;;;5033180;28;20178;-77
2021/06/04 02:46:40;;;;;;;1999.90;999.90;;;16.50;99.90;;;;;;5033418;28;20223;-78
2021/06/04 02:49:10;;;;;;;1999.90;999.90;;;16.40;99.90;;;;;;5033268;28;20187;-78
2021/06/04 02:51:53;;;;;;;1999.90;999.90;;;16.40;99.90;;;;;;5022689;28;20210;-78
2021/06/04 02:54:29;;;;;;;1999.90;999.90;;;16.50;99.90;;;;;;5028576;28;20182;-78
2021/06/04 02:56:59;;;;;;;1999.90;999.90;;;16.50;99.90;;;;;;5033428;28;20742;-78
2021/06/04 02:59:29;;;;;;;1999.90;999.90;;;16.40;99.90;;;;;;5028183;28;20185;-78
2021/06/04 03:02:02;;;;;;;1999.90;999.90;;;16.50;99.90;;;;;;5033309;28;20290;-78
2021/06/04 03:04:31;;;;;;;1999.90;999.90;;;16.50;99.90;;;;;;5028659;28;20193;-78
2021/06/04 03:07:01;;;;;;;1999.90;999.90;;;16.50;99.90;;;;;;5015766;28;20699;-78
2021/06/04 03:09:34;;;;;;;1999.90;999.90;;;16.50;99.90;;;;;;5033544;28;20557;-78
2021/06/04 03:12:05;;;;;;;1999.90;999.90;;;16.50;99.90;;;;;;5034009;28;20183;-78
2021/06/04 03:14:31;;;;;;;1999.90;999.90;;;16.50;99.90;;;;;;5035897;28;20178;-78
2021/06/04 03:17:05;;;;;;;1999.90;999.90;;;16.50;99.90;;;;;;5023690;28;20268;-78
2021/06/04 03:19:31;;;;;;;1999.90;999.90;;;16.50;99.90;;;;;;5033112;28;20174;-78
2021/06/04 03:22:07;;;;;;;1999.90;999.90;;;16.50;99.90;;;;;;5032616;28;20178;-78
2021/06/04 03:24:36;;;;;;;1999.90;999.90;;;16.40;99.90;;;;;;5035216;28;20225;-78
2021/06/04 03:27:04;;;;;;;1999.90;999.90;;;16.30;99.90;;;;;;5026576;28;20650;-79
2021/06/04 03:29:30;;;;;;;1999.90;999.90;;;16.30;99.90;;;;;;5026282;28;20216;-78
2021/06/04 03:32:00;;;;;;;1999.90;999.90;;;16.30;99.90;;;;;;5033137;28;20566;-77
2021/06/04 03:34:28;;;;;;;1999.90;999.90;;;16.30;99.90;;;;;;5033052;28;20203;-78
2021/06/04 03:36:57;;;;;;;1999.90;999.90;;;16.30;99.90;;;;;;5032796;28;20683;-77
2021/06/04 03:39:27;;;;;;;1999.90;999.90;;;16.30;99.90;;;;;;5027313;28;20178;-78
2021/06/04 03:41:54;;;;;;;1999.90;999.90;;;16.30;99.90;;;;;;5031709;28;20265;-77
2021/06/04 03:44:25;;;;;;;1999.90;999.90;;;16.10;99.90;;;;;;5033454;28;20268;-77
2021/06/04 03:46:51;;;;;;;1999.90;999.90;;;16.10;99.90;;;;;;5032428;28;20289;-77
2021/06/04 03:49:19;;;;;;;1999.90;999.90;;;16.10;99.90;;;;;;5033116;28;20197;-78
2021/06/04 03:51:48;;;;;;;1999.90;999.90;;;16.00;99.90;;;;;;5032600;28;20181;-79
2021/06/04 03:54:20;;;;;;;1999.90;999.90;;;16.10;99.90;;;;;;5033645;28;20261;-77
2021/06/04 03:56:46;;;;;;;1999.90;999.90;;;16.10;99.90;;;;;;5030494;28;20206;-77
2021/06/04 03:59:12;;;;;;;1999.90;999.90;;;16.10;99.90;;;;;;5025991;28;20207;-77
2021/06/04 04:01:43;;;;;;;1999.90;999.90;;;16.00;99.90;;;;;;5025286;28;20270;-77
2021/06/04 04:04:09;;;;;;;1999.90;999.90;;;16.00;99.90;;;;;;5024779;28;20179;-77
2021/06/04 04:06:35;;;;;;;1999.90;999.90;;;16.10;99.90;;;;;;5016392;28;20616;-77
2021/06/04 04:09:01;;;;;;;1999.90;999.90;;;16.20;99.90;;;;;;5032746;28;20181;-77
2021/06/04 04:11:27;;;;;;;1999.90;999.90;;;16.20;99.90;;;;;;5032838;28;20590;-78
2021/06/04 04:13:53;;;;;;;1999.90;999.90;;;16.20;99.90;;;;;;5031218;28;20174;-77
2021/06/04 04:16:18;;;;;;;1999.90;999.90;;;16.20;99.90;;;;;;5031288;28;20210;-78
2021/06/04 04:18:44;;;;;;;1999.90;999.90;;;16.30;99.90;;;;;;5029691;28;20190;-77
2021/06/04 04:21:12;;;;;;;1999.90;999.90;;;16.30;99.90;;;;;;5032491;28;20175;-77
2021/06/04 04:23:48;;;;;;;1999.90;999.90;;;16.30;99.90;;;;;;5032895;28;20905;-77
2021/06/04 04:26:17;;;;;;;1999.90;999.90;;;16.30;99.90;;;;;;5034708;28;20218;-77
2021/06/04 04:28:45;;;;;;;1999.90;999.90;;;16.40;99.90;;;;;;5035710;28;20241;-77
2021/06/04 04:31:17;;;;;;;1999.90;999.90;;;16.40;99.90;;;;;;5034447;28;20174;-77
2021/06/04 04:33:44;;;;;;;1999.90;999.90;;;16.50;99.90;;;;;;5033526;28;20188;-77
2021/06/04 04:36:11;;;;;;;1999.90;999.90;;;16.60;99.90;;;;;;5033578;28;20677;-78
2021/06/04 04:38:37;;;;;;;1999.90;999.90;;;16.60;99.90;;;;;;5034142;28;20727;-77
2021/06/04 04:41:05;;;;;;;1999.90;999.90;;;16.70;99.90;;;;;;5033782;28;20201;-77
2021/06/04 04:43:37;;;;;;;1999.90;999.90;;;16.80;99.90;;;;;;5033545;28;20181;-78
2021/06/04 04:46:05;;;;;;;1999.90;999.90;;;16.80;99.90;;;;;;5033669;28;20259;-77
2021/06/04 04:48:31;;;;;;;1999.90;999.90;;;16.90;99.90;;;;;;5033475;28;20182;-77
2021/06/04 04:50:58;;;;;;;1999.90;999.90;;;17.00;99.90;;;;;;5033508;28;20182;-77
2021/06/04 04:53:25;;;;;;;1999.90;999.90;;;17.10;99.90;;;;;;5021104;28;20269;-77
2021/06/04 04:55:51;;;;;;;1999.90;999.90;;;17.20;99.90;;;;;;5035600;28;20560;-76
2021/06/04 04:58:18;;;;;;;1999.90;999.90;;;17.30;99.90;;;;;;5029569;28;20198;-77
2021/06/04 05:00:44;;;;;;;1999.90;999.90;;;17.40;99.90;;;;;;5037081;28;20171;-78
2021/06/04 05:03:12;;;;;;;1999.90;999.90;;;17.40;99.90;;;;;;5037459;28;20228;-77
2021/06/04 05:05:39;;;;;;;1999.90;999.90;;;17.40;99.90;;;;;;5038241;28;20234;-78
2021/06/04 05:08:06;;;;;;;1999.90;999.90;;;17.50;99.90;;;;;;5037729;28;20182;-78
2021/06/04 05:10:33;;;;;;;1999.90;999.90;;;17.50;99.90;;;;;;5038067;28;20171;-77
2021/06/04 05:13:00;;;;;;;1999.90;999.90;;;17.50;99.90;;;;;;5028706;28;20656;-78
2021/06/04 05:15:29;;;;;;;1999.90;999.90;;;17.50;99.90;;;;;;5035332;28;20206;-78
2021/06/04 05:17:55;;;;;;;1999.90;999.90;;;17.60;99.90;;;;;;5033585;28;20276;-78
2021/06/04 05:20:22;;;;;;;1999.90;999.90;;;17.60;99.90;;;;;;5039521;28;20178;-77
2021/06/04 05:22:48;;;;;;;1999.90;999.90;;;17.60;99.90;;;;;;5039741;28;20193;-78
2021/06/04 05:25:17;;;;;;;1999.90;999.90;;;17.60;99.90;;;;;;5037279;28;20271;-78
2021/06/04 05:27:45;;;;;;;1999.90;999.90;;;17.50;99.90;;;;;;5020270;28;20183;-78
2021/06/04 05:30:16;;;;;;;1999.90;999.90;;;17.50;99.90;;;;;;5037714;28;20202;-78
2021/06/04 05:32:41;;;;;;;1999.90;999.90;;;17.70;99.90;;;;;;5031496;28;20187;-78
2021/06/04 05:35:09;;;;;;;1999.90;999.90;;;17.80;99.90;;;;;;5017271;28;20198;-78
2021/06/04 05:37:35;;;;;;;1999.90;999.90;;;17.90;99.90;;;;;;5035546;28;20224;-78
2021/06/04 05:40:03;;;;;;;1999.90;999.90;;;18.00;99.90;;;;;;5027613;28;20685;-78
2021/06/04 05:42:28;;;;;;;1999.90;999.90;;;18.10;99.90;;;;;;5033220;28;20278;-78
2021/06/04 05:44:54;;;;;;;1999.90;999.90;;;18.10;99.90;;;;;;5037174;28;20198;-78
2021/06/04 05:47:20;;;;;;;1999.90;999.90;;;18.20;99.90;;;;;;5037412;28;20189;-78
2021/06/04 05:49:45;;;;;;;1999.90;999.90;;;18.20;99.90;;;;;;5034610;28;20186;-78
2021/06/04 05:52:14;;;;;;;1999.90;999.90;;;18.30;99.90;;;;;;5037173;28;20317;-78
2021/06/04 05:55:00;;;;;;;1999.90;999.90;;;18.30;99.90;;;;;;5033664;28;20649;-85
2021/06/04 05:57:26;;;;;;;1999.90;999.90;;;18.40;99.90;;;;;;5030468;28;20289;-82
2021/06/04 06:00:45;;;;;;;;;;;;;;;;;;;;;
2021/06/04 06:03:35;;;;;;;1999.90;999.90;;;18.60;99.90;;;;;;5038335;28;20266;-90
2021/06/04 06:06:13;;;;;;;1999.90;999.90;;;18.70;99.90;;;;;;5002244;28;20202;-89
2021/06/04 06:08:53;;;;;;;1999.90;999.90;;;18.70;99.90;;;;;;5038241;28;20186;-88
2021/06/04 06:11:25;;;;;;;1999.90;999.90;;;18.70;99.90;;;;;;5033556;28;20202;-89
2021/06/04 06:14:00;;;;;;;1999.90;999.90;;;18.70;99.90;;;;;;5038586;28;20167;-88
2021/06/04 06:16:29;;;;;;;1999.90;999.90;;;18.90;99.90;;;;;;5037811;28;20197;-88
2021/06/04 06:18:55;;;;;;;1999.90;999.90;;;18.90;99.90;;;;;;5037535;28;20239;-88
2021/06/04 06:21:21;;;;;;;1999.90;999.90;;;18.80;99.90;;;;;;5037561;28;20215;-88
2021/06/04 06:23:47;;;;;;;1999.90;999.90;;;18.80;99.90;;;;;;5037807;28;20187;-88
2021/06/04 06:26:18;;;;;;;1999.90;999.90;;;18.80;99.90;;;;;;5035346;28;20589;-88
2021/06/04 06:28:49;;;;;;;1999.90;999.90;;;18.80;99.90;;;;;;5035917;28;20198;-88
2021/06/04 06:31:21;;;;;;;1999.90;999.90;;;18.90;99.90;;;;;;5030717;28;20176;-89
2021/06/04 06:33:52;;;;;;;1999.90;999.90;;;18.90;99.90;;;;;;5037906;28;20536;-88
2021/06/04 06:36:27;;;;;;;1999.90;999.90;;;18.90;99.90;;;;;;5037491;28;20700;-89
2021/06/04 06:38:54;;;;;;;1999.90;999.90;;;18.80;99.90;;;;;;5036963;28;20178;-88
2021/06/04 06:41:21;;;;;;;1999.90;999.90;;;18.80;99.90;;;;;;5031880;28;20664;-89
2021/06/04 06:43:51;;;;;;;1999.90;999.90;;;18.90;99.90;;;;;;5037971;28;20194;-89
2021/06/04 06:46:19;;;;;;;1999.90;999.90;;;18.90;99.90;;;;;;5031949;28;20225;-88
2021/06/04 06:48:46;;;;;;;1999.90;999.90;;;18.90;99.90;;;;;;5036066;28;20229;-88
2021/06/04 06:51:12;;;;;;;1999.90;999.90;;;18.70;99.90;;;;;;5036154;28;20733;-74
2021/06/04 06:53:39;;;;;;;1999.90;999.90;;;18.50;99.90;;;;;;5032797;28;20249;-74
2021/06/04 06:56:07;;;;;;;1999.90;999.90;;;18.60;99.90;;;;;;5033495;28;20202;-75
2021/06/04 06:58:34;;;;;;;1999.90;999.90;;;18.70;99.90;;;;;;5033071;28;20553;-75
2021/06/04 07:01:00;;;;;;;1999.90;999.90;;;18.80;99.90;;;;;;5024636;28;20208;-75
2021/06/04 07:03:30;;;;;;;1999.90;999.90;;;18.80;99.90;;;;;;5023942;28;20553;-75
2021/06/04 07:06:00;;;;;;;1999.90;999.90;;;18.80;99.90;;;;;;5033016;28;20711;-74
2021/06/04 07:08:26;;;;;;;1999.90;999.90;;;18.70;99.90;;;;;;5032656;28;20198;-75
2021/06/04 07:10:52;;;;;;;1999.90;999.90;;;18.80;99.90;;;;;;5031729;28;20178;-75
2021/06/04 07:13:25;;;;;;;1999.90;999.90;;;18.60;99.90;;;;;;5033083;28;20198;-75
2021/06/04 07:15:56;;;;;;;1999.90;999.90;;;18.60;99.90;;;;;;5033120;28;20664;-74
2021/06/04 07:18:22;;;;;;;1999.90;999.90;;;18.70;99.90;;;;;;5033130;28;20180;-75
2021/06/04 07:20:47;;;;;;;1999.90;999.90;;;18.70;99.90;;;;;;5032094;28;20241;-74
2021/06/04 07:23:13;;;;;;;1999.90;999.90;;;18.70;99.90;;;;;;5032445;28;20182;-74
2021/06/04 07:25:42;;;;;;;1999.90;999.90;;;18.70;99.90;;;;;;5031852;28;20300;-74
2021/06/04 07:28:10;;;;;;;1999.90;999.90;;;18.60;99.90;;;;;;5035496;28;20206;-75
2021/06/04 07:30:41;;;;;;;1999.90;999.90;;;18.30;99.90;;;;;;5034194;28;20186;-74
2021/06/04 07:33:13;;;;;;;1999.90;999.90;;;18.10;99.90;;;;;;5025466;28;20229;-74
2021/06/04 07:35:40;;;;;;;1999.90;999.90;;;17.80;99.90;;;;;;5032972;28;20566;-74
2021/06/04 07:38:06;;;;;;;1999.90;999.90;;;17.80;99.90;;;;;;5033103;28;20217;-74
2021/06/04 07:40:35;;;;;;;1999.90;999.90;;;17.70;99.90;;;;;;5032907;28;20215;-74
2021/06/04 07:43:03;;;;;;;1999.90;999.90;;;17.70;99.90;;;;;;5025502;28;20194;-73
2021/06/04 07:45:31;;;;;;;1999.90;999.90;;;17.70;99.90;;;;;;5032520;28;20202;-75
2021/06/04 07:47:59;;;;;;;1999.90;999.90;;;17.80;99.90;;;;;;5032782;28;20203;-74
2021/06/04 07:50:25;;;;;;;1999.90;999.90;;;17.70;99.90;;;;;;5032694;28;20208;-74
2021/06/04 07:52:51;;;;;;;1999.90;999.90;;;17.60;99.90;;;;;;5032768;28;20657;-74
2021/06/04 07:55:17;;;;;;;1999.90;999.90;;;17.70;99.90;;;;;;5030321;28;20203;-75
2021/06/04 07:57:43;;;;;;;1999.90;999.90;;;17.80;99.90;;;;;;5030272;28;20269;-74
2021/06/04 08:00:16;;;;;;;1999.90;999.90;;;17.90;99.90;;;;;;5033613;28;20214;-74
2021/06/04 08:02:42;;;;;;;1999.90;999.90;;;17.90;99.90;;;;;;5037031;28;20182;-74
2021/06/04 08:05:09;;;;;;;1999.90;999.90;;;17.90;99.90;;;;;;5036455;28;20221;-74
2021/06/04 08:07:34;;;;;;;1999.90;999.90;;;17.90;99.90;;;;;;5032559;28;20202;-74
2021/06/04 08:10:00;;;;;;;1999.90;999.90;;;18.10;99.90;;;;;;5036469;28;20265;-74
2021/06/04 08:12:31;;;;;;;1999.90;999.90;;;18.10;99.90;;;;;;5036345;28;20265;-74
2021/06/04 08:15:09;;;;;;;1999.90;999.90;;;18.00;99.90;;;;;;5035934;28;20186;-74
2021/06/04 08:17:35;;;;;;;1999.90;999.90;;;17.80;99.90;;;;;;5022262;28;20339;-74
2021/06/04 08:20:03;;;;;;;1999.90;999.90;;;17.70;99.90;;;;;;5035152;28;20210;-75
2021/06/04 08:22:28;;;;;;;1999.90;999.90;;;17.60;99.90;;;;;;5017905;28;20171;-74
2021/06/04 08:24:54;;;;;;;1999.90;999.90;;;17.60;99.90;;;;;;5033414;28;20252;-74
2021/06/04 08:27:20;;;;;;;1999.90;999.90;;;17.60;99.90;;;;;;5035630;28;20555;-74
2021/06/04 08:29:48;;;;;;;1999.90;999.90;;;17.60;99.90;;;;;;5035603;28;20232;-74
2021/06/04 08:32:14;;;;;;;1999.90;999.90;;;17.70;99.90;;;;;;5036033;28;20179;-73
2021/06/04 08:34:41;;;;;;;1999.90;999.90;;;17.70;99.90;;;;;;5023902;28;20546;-74
2021/06/04 08:37:07;;;;;;;1999.90;999.90;;;17.60;99.90;;;;;;5036152;28;20186;-74
2021/06/04 08:39:37;;;;;;;1999.90;999.90;;;17.60;99.90;;;;;;5035937;28;20645;-74
2021/06/04 08:42:28;;;;;;;1999.90;999.90;;;17.50;99.90;;;;;;5026089;28;20186;-74
2021/06/04 08:45:12;;;;;;;1999.90;999.90;;;17.50;99.90;;;;;;5035444;28;20173;-74
2021/06/04 08:47:41;;;;;;;1999.90;999.90;;;17.50;99.90;;;;;;5032170;28;20205;-74
2021/06/04 08:50:31;;;;;;;1999.90;999.90;;;17.50;99.90;;;;;;5025589;28;20181;-74
2021/06/04 08:53:07;;;;;;;1999.90;999.90;;;17.60;99.90;;;;;;5028494;28;20232;-74
2021/06/04 08:55:35;;;;;;;1999.90;999.90;;;17.80;99.90;;;;;;5034209;28;20660;-74
2021/06/04 08:58:19;;;;;;;1999.90;999.90;;;17.80;99.90;;;;;;5035318;28;20182;-76
2021/06/04 09:00:54;;;;;;;1999.90;999.90;;;17.80;99.90;;;;;;5032142;28;20182;-75
2021/06/04 09:03:32;;;;;;;1999.90;999.90;;;18.00;99.90;;;;;;5035452;28;20673;-73
2021/06/04 09:06:02;;;;;;;1999.90;999.90;;;17.90;99.90;;;;;;5035571;28;20297;-75
2021/06/04 09:08:32;;;;;;;1999.90;999.90;;;18.00;99.90;;;;;;5030195;28;20204;-75
2021/06/04 09:11:03;;;;;;;1999.90;999.90;;;18.00;99.90;;;;;;5020991;28;20190;-74
2021/06/04 09:13:32;;;;;;;1999.90;999.90;;;18.10;99.90;;;;;;5035058;28;20595;-74
2021/06/04 09:16:19;;;;;;;1999.90;999.90;;;18.10;99.90;;;;;;5031636;28;20744;-74
2021/06/04 09:18:56;;;;;;;1999.90;999.90;;;18.20;99.90;;;;;;5007800;28;20186;-74
2021/06/04 09:21:26;;;;;;;1999.90;999.90;;;18.20;99.90;;;;;;5028878;28;20181;-74
2021/06/04 09:23:52;;;;;;;1999.90;999.90;;;18.20;99.90;;;;;;5022950;28;20273;-74
2021/06/04 09:26:21;;;;;;;1999.90;999.90;;;18.20;99.90;;;;;;5023705;28;20329;-75
2021/06/04 09:29:07;;;;;;;1999.90;999.90;;;18.20;99.90;;;;;;5010905;28;20198;-74
2021/06/04 09:31:51;;;;;;;1999.90;999.90;;;18.10;99.90;;;;;;5032770;28;20177;-73
2021/06/04 09:34:27;;;;;;;1999.90;999.90;;;18.10;99.90;;;;;;5023603;28;20174;-74
2021/06/04 09:37:07;;;;;;;1999.90;999.90;;;18.10;99.90;;;;;;5030321;28;20190;-74
2021/06/04 09:39:39;;;;;;;1999.90;999.90;;;18.10;99.90;;;;;;5011523;28;20551;-74
2021/06/04 09:42:19;;;;;;;1999.90;999.90;;;18.10;99.90;;;;;;5027826;28;20550;-74
2021/06/04 09:44:56;;;;;;;1999.90;999.90;;;17.90;99.90;;;;;;5027044;28;20174;-74
2021/06/04 09:47:40;;;;;;;1999.90;999.90;;;18.00;99.90;;;;;;5012363;28;20412;-74
2021/06/04 09:50:35;;;;;;;1999.90;999.90;;;18.00;99.90;;;;;;5024140;28;20222;-75
2021/06/04 09:53:10;;;;;;;1999.90;999.90;;;18.00;99.90;;;;;;5022667;28;20685;-74
2021/06/04 09:55:45;;;;;;;1999.90;999.90;;;18.20;99.90;;;;;;5023219;28;20400;-74
2021/06/04 09:58:13;;;;;;;1999.90;999.90;;;18.10;99.90;;;;;;5025173;28;20182;-75
2021/06/04 10:00:54;;;;;;;1999.90;999.90;;;18.20;99.90;;;;;;5021469;28;20257;-74
2021/06/04 10:03:35;;;;;;;1999.90;999.90;;;18.30;99.90;;;;;;5025453;28;20182;-75
2021/06/04 10:06:07;;;;;;;1999.90;999.90;;;18.30;99.90;;;;;;5027379;28;20213;-75
2021/06/04 10:08:49;;;;;;;1999.90;999.90;;;18.30;99.90;;;;;;5023664;28;20273;-74
2021/06/04 10:11:31;;;;;;;1999.90;999.90;;;18.40;99.90;;;;;;5020352;28;20178;-75
2021/06/04 10:14:39;;;;;;;1999.90;999.90;;;18.40;99.90;;;;;;5028377;28;20233;-74
2021/06/04 10:19:54;;;;;;;1999.90;999.90;;;18.40;99.90;;;;;;5018575;28;20179;-74
2021/06/04 10:22:40;;;;;;;1999.90;999.90;;;18.60;99.90;;;;;;5028477;28;20190;-74
2021/06/04 10:25:05;;;;;;;1999.90;999.90;;;18.50;99.90;;;;;;5022453;28;20602;-74
2021/06/04 10:27:39;;;;;;;1999.90;999.90;;;18.50;99.90;;;;;;5027445;28;20210;-74
2021/06/04 10:30:14;;;;;;;1999.90;999.90;;;18.50;99.90;;;;;;5026722;28;20205;-74
2021/06/04 10:32:52;;;;;;;1999.90;999.90;;;18.60;99.90;;;;;;5029129;28;20174;-74
2021/06/04 10:35:46;;;;;;;1999.90;999.90;;;18.60;99.90;;;;;;5032563;28;20381;-74
2021/06/04 10:38:14;;;;;;;1999.90;999.90;;;18.70;99.90;;;;;;5018691;28;20178;-74
2021/06/04 10:40:51;;;;;;;1999.90;999.90;;;18.70;99.90;;;;;;5032941;28;20174;-75
2021/06/04 10:43:43;;;;;;;1999.90;999.90;;;18.70;99.90;;;;;;5033584;28;20260;-75
2021/06/04 10:46:13;;;;;;;1999.90;999.90;;;18.60;99.90;;;;;;5033380;28;20215;-74
2021/06/04 10:48:44;;;;;;;1999.90;999.90;;;18.70;99.90;;;;;;5033956;28;20226;-75
2021/06/04 10:51:31;;;;;;;1999.90;999.90;;;18.60;99.90;;;;;;5026367;28;20170;-74
2021/06/04 10:54:08;;;;;;;1999.90;999.90;;;18.70;99.90;;;;;;5033475;28;20671;-74
2021/06/04 10:56:42;;;;;;;1999.90;999.90;;;18.90;99.90;;;;;;5033315;28;20616;-74
2021/06/04 10:59:30;;;;;;;1999.90;999.90;;;18.90;99.90;;;;;;5033574;28;20178;-74
2021/06/04 11:02:00;;;;;;;1999.90;999.90;;;19.10;99.90;;;;;;5023933;28;20616;-74
2021/06/04 11:04:45;;;;;;;1999.90;999.90;;;19.20;99.90;;;;;;5033313;28;20175;-74
2021/06/04 11:07:35;;;;;;;1999.90;999.90;;;19.20;99.90;;;;;;5033266;28;20205;-74
2021/06/04 11:10:18;;;;;;;1999.90;999.90;;;19.40;99.90;;;;;;5019226;28;20187;-74
2021/06/04 11:12:52;;;;;;;1999.90;999.90;;;19.50;99.90;;;;;;5033256;28;20167;-74
2021/06/04 11:15:43;;;;;;;1999.90;999.90;;;19.60;99.90;;;;;;5026821;28;20696;-74
2021/06/04 11:18:15;;;;;;;1999.90;999.90;;;19.90;99.90;;;;;;5033111;28;20178;-75
2021/06/04 11:20:50;;;;;;;1999.90;999.90;;;20.00;99.90;;;;;;5033117;28;20174;-74
2021/06/04 11:23:39;;;;;;;1999.90;999.90;;;20.00;99.90;;;;;;5035717;28;20170;-74
2021/06/04 11:26:11;;;;;;;1999.90;999.90;;;20.20;99.90;;;;;;5033059;28;20715;-74
2021/06/04 11:29:07;;;;;;;1999.90;999.90;;;20.40;99.90;;;;;;5033034;28;20205;-75
2021/06/04 11:31:54;;;;;;;1999.90;999.90;;;20.40;99.90;;;;;;5033134;28;20552;-73
2021/06/04 11:34:23;;;;;;;1999.90;999.90;;;20.40;99.90;;;;;;5033134;28;20174;-74
2021/06/04 11:36:49;;;;;;;1999.90;999.90;;;20.60;99.90;;;;;;5038179;28;20212;-74
2021/06/04 11:39:42;;;;;;;1999.90;999.90;;;20.70;99.90;;;;;;5037205;28;20167;-74
2021/06/04 11:42:33;;;;;;;1999.90;999.90;;;20.70;99.90;;;;;;5036418;28;20182;-74
2021/06/04 11:45:01;;;;;;;1999.90;999.90;;;20.70;99.90;;;;;;5037274;28;20669;-74
2021/06/04 11:47:30;;;;;;;1999.90;999.90;;;20.80;99.90;;;;;;5031699;28;20193;-74
2021/06/04 11:49:56;;;;;;;1999.90;999.90;;;20.90;99.90;;;;;;5037116;28;20185;-74
2021/06/04 11:52:21;;;;;;;1999.90;999.90;;;20.90;99.90;;;;;;5031024;28;20166;-74
2021/06/04 11:54:48;;;;;;;1999.90;999.90;;;21.10;99.90;;;;;;5036588;28;20247;-74
2021/06/04 11:57:28;;;;;;;1999.90;999.90;;;21.10;99.90;;;;;;5036701;28;20174;-74
2021/06/04 12:00:12;;;;;;;1999.90;999.90;;;21.30;99.90;;;;;;5036542;28;20166;-75
2021/06/04 12:03:12;;;;;;;1999.90;999.90;;;21.40;99.90;;;;;;5036524;28;20263;-74
2021/06/04 12:05:57;;;;;;;1999.90;999.90;;;21.50;99.90;;;;;;5001731;28;20587;-75
2021/06/04 12:08:28;;;;;;;1999.90;999.90;;;21.70;99.90;;;;;;5036581;28;20645;-74
2021/06/04 12:11:12;;;;;;;1999.90;999.90;;;21.80;99.90;;;;;;5035066;28;20543;-74
2021/06/04 12:14:04;;;;;;;1999.90;999.90;;;21.90;99.90;;;;;;5036459;28;20171;-74
2021/06/04 12:16:34;;;;;;;1999.90;999.90;;;22.10;99.90;;;;;;5036326;28;20194;-75
2021/06/04 12:19:24;;;;;;;1999.90;999.90;;;22.20;99.90;;;;;;5036974;28;20527;-75
2021/06/04 12:21:51;;;;;;;1999.90;999.90;;;22.40;99.90;;;;;;5036248;28;20261;-74
2021/06/04 12:24:16;;;;;;;1999.90;999.90;;;22.50;99.90;;;;;;5036236;28;20712;-75
2021/06/04 12:26:49;;;;;;;1999.90;999.90;;;22.50;99.90;;;;;;5035937;28;20289;-75
2021/06/04 12:29:21;;;;;;;1999.90;999.90;;;22.60;99.90;;;;;;5036197;28;20225;-74
2021/06/04 12:31:54;;;;;;;1999.90;999.90;;;22.90;99.90;;;;;;5036181;28;20181;-75